EGGDEGDM

Guest
Details From EGGD - Bristol International
To EGDM - Boscombe Down
Flight Number -
Tags generated
Created
Modified
Stats Distance 46 nm / 85 km
Max Altitude 4,500 ft / 1,372 m
Waypoints 3
Social Downloads 0
Likes 0
Share VATSIM

Download

Looking for another format? Having issues loading an existing format? Contact us
Advertisement - Login to hide

Notes

Basic altitude profile: - Ascent Rate: 700ft/min - Ascent Speed: 90kts - Cruise Altitude: 10000ft - Cruise Speed: 120kts - Descent Rate: 1500ft/min - Descent Speed: 100kts Options: - Use NATs: yes - Use PACOTS: yes - Use low airways: yes - Use high airways: no

Route

EGGD OKESI EGDM

ID Type Via Altitude Latitude Longitude Leg Dist Tot Dist Heading (true) Name
O EGGD APT - 0 ft / 0 m 51.38266˚ -2.71892˚ - 0 nm - Bristol International
OKESI FIX - 4,500 ft / 1,372 m 51.44333˚ -2.06167˚ 24 nm 24 nm 81° / 82° -
O EGDM APT - 0 ft / 0 m 51.15323˚ -1.74544˚ 21 nm 45 nm 146° / 146° Boscombe Down

Altitude Profile

Advertisement - Login to hide

EGGD

Details ICAO EGGD (BRS)
Name Bristol International
Region United Kingdom
Timezone Europe/London (UTC+0.0)
Stats Elevation 622 ft / 190 m (AMSL)
Location 51.382658° -2.718918°
Runways 1
Magnetic Variation 1.350° W

METAR

EGGD 140220Z AUTO 26024KT 9999 BKN032/// //////CB 05/01 Q0994

Decode

TAF

TAF EGGD 132256Z 1400/1424 27018KT 9999 SCT030 TEMPO 1400/1424 26022G32KT 6000 SHRA BKN006 PROB30 TEMPO 1400/1412 1200 +SHRASN BKN002 PROB30 TEMPO 1412/1424 3000 +SHRA BKN004

Decode

Departure Runways

ID Width Length Bearing (true) Bearing (mag) Surface Threshold Offset Overrun Length
09 148 ft / 45 m 6,655 ft / 2,029 m 86.42° 87.77° Asphalt 0 ft / 0 m 0 ft / 0 m
27 148 ft / 45 m 6,655 ft / 2,029 m 266.44° 267.79° Asphalt 499 ft / 152 m 0 ft / 0 m

EGDM

Details ICAO EGDM
Name Boscombe Down
Region United Kingdom
Timezone Europe/London (UTC+0.0)
Stats Elevation 407 ft / 124 m (AMSL)
Location 51.153231° -1.745444°
Runways 3
Magnetic Variation 0.974° W

METAR

EGDM 140150Z AUTO 26014KT 9999 FEW024/// SCT200/// 04/01 Q0995

Decode

TAF

Not found

Destination Runways

ID Width Length Bearing (true) Bearing (mag) Surface Threshold Offset Overrun Length
05 148 ft / 45 m 10,332 ft / 3,149 m 50.07° 51.04° Asphalt 492 ft / 150 m 0 ft / 0 m
05L 39 ft / 12 m 2,628 ft / 801 m 50.16° 51.13° Asphalt 0 ft / 0 m 0 ft / 0 m
17 148 ft / 45 m 6,144 ft / 1,873 m 166.59° 167.56° Asphalt 0 ft / 0 m 0 ft / 0 m
23 148 ft / 45 m 10,332 ft / 3,149 m 230.10° 231.07° Asphalt 213 ft / 65 m 0 ft / 0 m
23R 39 ft / 12 m 2,628 ft / 801 m 230.17° 231.14° Asphalt 115 ft / 35 m 0 ft / 0 m
35 148 ft / 45 m 6,144 ft / 1,873 m 346.60° 347.57° Asphalt 0 ft / 0 m 0 ft / 0 m

Approach Navaids

Runway Type Ident Frequency Range Bearing (true) Bearing (mag) Slope Elevation
23 Localiser BD 111.70 MHz 18 nm / 33 km 230.00° 230.97° - 407 ft / 124 m (AMSL)
23 Glidescope BD 111.70 MHz 18 nm / 33 km 230.00° 230.97° 3.00° 407 ft / 124 m (AMSL)